ESUP

Pajala Airport

Sweden
METAR ESUP 190720Z AUTO 14009KT 100V180 9999 NCD 26/14 Q1017
Observed Flight Rules
Jul-19 @ 07:20 UTC (16 minutes ago) Visual Flight Rules
Wind Visibility Clouds
140° at 9 knots 10,000+ meters
  • Clear skies
Temperatures Readings
Current 26°C / 79°F
Dewpoint 14°C / 57°F
Humidity 48%
Altimeter 30.03" Hg
Pressure 1017 hPa
Elevation 165
METAR ESUP 190720Z AUTO 14009KT 100V180 9999 NCD 26/14 Q1017
Observed Flight Rules
Jul-19 @ 07:20 UTC
(16 minutes ago)
VFR
Wind Visibility
140° at 9 knots 10,000+ meters
Clouds
  • Clear skies
Temperature Dewpoint
26°C / 79°F 14°C / 57°F
Humidity Altimeter Pressure
48% 30.03" Hg 1017 hPa